Tenafly, New Jersey
Current Conditions -  °F | °C
As of 6:51 AM on Friday 19 Dec 2014 (Local Time) from KTEB Reporting Station
Overcast Overcast  
Wind Chill: 29°   Ceiling: 3600
Heat Index: 37°   Visibility: 10mi
Dew Point: 22°   Wind: 13mph
Humidity: 54%   Direction: 340°NNW
Pressure: 30"   Gusts: NA
Location:  40.93°N, 73.97°W
Report Text: KTEB 191151Z 34011KT 10SM OVC036 03/M06 A3000 RMK AO2 SLP158 T00281056 10033 20022 53008
Loading
Personal Weather Stations






























Interactive Weather Map New forecast layout! Learn more

10-Day Weather Forecast

Advertisements
Track Severe Weather on mobile